Terminal Aerodrome Forecast
Issued by NWS

Home | Current Version | Previous Version | Text Only | Print | Product List | Glossary On
Versions: 1 2 3 4 5 6 7 8 9 10 11 12 13 14 15
000
FTUS45 KRIW 290500
TAFWRL
TAF
KWRL 290529Z 2906/3006 35009KT P6SM FEW110
     FM290800 VRB05KT P6SM SKC
     FM292100 13007KT P6SM SCT120 BKN200=

USA.gov is the U.S. government's official web portal to all federal, state and local government web resources and services.